sensor_id;sensor_type;location;lat;lon;timestamp;P1;P2;P0
49686;PMS5003;36064;38.180;-122.272;2023-07-20T00:00:00;14.6;13.8;
49686;PMS5003;36064;38.180;-122.272;2023-07-20T00:05:00;13.6;12.0;
49686;PMS5003;36064;38.180;-122.272;2023-07-20T00:10:00;15.2;13.6;
49686;PMS5003;36064;38.180;-122.272;2023-07-20T00:15:00;16.2;14.8;
49686;PMS5003;36064;38.180;-122.272;2023-07-20T00:20:00;17.0;14.0;
49686;PMS5003;36064;38.180;-122.272;2023-07-20T00:25:00;16.4;15.6;
49686;PMS5003;36064;38.180;-122.272;2023-07-20T00:30:00;13.6;13.2;
49686;PMS5003;36064;38.180;-122.272;2023-07-20T00:35:00;15.4;14.6;
49686;PMS5003;36064;38.180;-122.272;2023-07-20T00:40:00;12.8;12.2;
49686;PMS5003;36064;38.180;-122.272;2023-07-20T00:45:01;14.8;12.4;
49686;PMS5003;36064;38.180;-122.272;2023-07-20T00:50:00;13.6;13.4;
49686;PMS5003;36064;38.180;-122.272;2023-07-20T00:55:00;20.4;19.6;
49686;PMS5003;36064;38.180;-122.272;2023-07-20T01:00:00;21.8;19.4;
49686;PMS5003;36064;38.180;-122.272;2023-07-20T01:05:00;17.2;15.6;
49686;PMS5003;36064;38.180;-122.272;2023-07-20T01:10:01;17.4;15.6;
49686;PMS5003;36064;38.180;-122.272;2023-07-20T01:15:00;16.8;16.2;
49686;PMS5003;36064;38.180;-122.272;2023-07-20T01:20:00;21.0;18.2;
49686;PMS5003;36064;38.180;-122.272;2023-07-20T01:25:07;18.6;16.0;
49686;PMS5003;36064;38.180;-122.272;2023-07-20T01:30:06;18.4;16.8;
49686;PMS5003;36064;38.180;-122.272;2023-07-20T01:35:00;18.6;17.8;
49686;PMS5003;36064;38.180;-122.272;2023-07-20T01:40:00;18.0;16.2;
49686;PMS5003;36064;38.180;-122.272;2023-07-20T01:45:00;16.4;16.0;
49686;PMS5003;36064;38.180;-122.272;2023-07-20T01:50:00;17.6;16.4;
49686;PMS5003;36064;38.180;-122.272;2023-07-20T01:55:00;13.4;12.4;
49686;PMS5003;36064;38.180;-122.272;2023-07-20T02:00:01;13.4;12.4;
49686;PMS5003;36064;38.180;-122.272;2023-07-20T02:05:00;17.4;16.6;
49686;PMS5003;36064;38.180;-122.272;2023-07-20T02:10:00;15.4;13.8;
49686;PMS5003;36064;38.180;-122.272;2023-07-20T02:15:01;14.6;13.2;
49686;PMS5003;36064;38.180;-122.272;2023-07-20T02:20:00;10.6;10.2;
49686;PMS5003;36064;38.180;-122.272;2023-07-20T02:25:00;15.8;15.4;
49686;PMS5003;36064;38.180;-122.272;2023-07-20T02:30:01;11.8;11.8;
49686;PMS5003;36064;38.180;-122.272;2023-07-20T02:35:00;12.6;10.8;
49686;PMS5003;36064;38.180;-122.272;2023-07-20T02:40:00;11.2;11.0;
49686;PMS5003;36064;38.180;-122.272;2023-07-20T02:45:01;14.6;14.6;
49686;PMS5003;36064;38.180;-122.272;2023-07-20T02:50:00;11.6;11.6;
49686;PMS5003;36064;38.180;-122.272;2023-07-20T02:55:00;12.6;10.2;
49686;PMS5003;36064;38.180;-122.272;2023-07-20T03:00:01;12.4;13.2;
49686;PMS5003;36064;38.180;-122.272;2023-07-20T03:05:00;15.0;13.4;
49686;PMS5003;36064;38.180;-122.272;2023-07-20T03:10:00;14.4;13.0;
49686;PMS5003;36064;38.180;-122.272;2023-07-20T03:15:00;12.6;11.84;
49686;PMS5003;36064;38.180;-122.272;2023-07-20T03:20:00;14.2;13.2;
49686;PMS5003;36064;38.180;-122.272;2023-07-20T03:25:00;14.8;13.2;
49686;PMS5003;36064;38.180;-122.272;2023-07-20T03:30:01;18.4;15.4;
49686;PMS5003;36064;38.180;-122.272;2023-07-20T03:35:00;17.2;15.6;
49686;PMS5003;36064;38.180;-122.272;2023-07-20T03:40:00;19.0;16.2;
49686;PMS5003;36064;38.180;-122.272;2023-07-20T03:45:00;22.8;20.4;
49686;PMS5003;36064;38.180;-122.272;2023-07-20T03:50:00;19.6;18.4;
49686;PMS5003;36064;38.180;-122.272;2023-07-20T03:55:00;18.2;17.0;
49686;PMS5003;36064;38.180;-122.272;2023-07-20T04:00:00;23.0;18.0;
49686;PMS5003;36064;38.180;-122.272;2023-07-20T04:05:00;15.2;13.6;
49686;PMS5003;36064;38.180;-122.272;2023-07-20T04:10:00;19.8;18.0;
49686;PMS5003;36064;38.180;-122.272;2023-07-20T04:15:01;19.4;19.2;
49686;PMS5003;36064;38.180;-122.272;2023-07-20T04:20:00;14.4;14.0;
49686;PMS5003;36064;38.180;-122.272;2023-07-20T04:25:00;16.6;15.4;
49686;PMS5003;36064;38.180;-122.272;2023-07-20T04:30:01;17.4;16.6;
49686;PMS5003;36064;38.180;-122.272;2023-07-20T04:35:00;14.2;11.8;
49686;PMS5003;36064;38.180;-122.272;2023-07-20T04:40:00;17.2;15.4;
49686;PMS5003;36064;38.180;-122.272;2023-07-20T04:45:00;17.6;14.4;
49686;PMS5003;36064;38.180;-122.272;2023-07-20T04:50:00;16.4;15.6;
49686;PMS5003;36064;38.180;-122.272;2023-07-20T04:55:00;15.2;14.6;
49686;PMS5003;36064;38.180;-122.272;2023-07-20T05:00:00;21.0;20.0;
49686;PMS5003;36064;38.180;-122.272;2023-07-20T05:05:00;16.8;15.4;
49686;PMS5003;36064;38.180;-122.272;2023-07-20T05:10:00;18.2;17.2;
49686;PMS5003;36064;38.180;-122.272;2023-07-20T05:15:00;19.8;18.4;
49686;PMS5003;36064;38.180;-122.272;2023-07-20T05:20:00;16.2;13.6;
49686;PMS5003;36064;38.180;-122.272;2023-07-20T05:25:00;20.8;19.8;
49686;PMS5003;36064;38.180;-122.272;2023-07-20T05:30:01;16.8;16.2;
49686;PMS5003;36064;38.180;-122.272;2023-07-20T05:35:00;19.6;17.6;
49686;PMS5003;36064;38.180;-122.272;2023-07-20T05:40:00;19.4;15.6;
49686;PMS5003;36064;38.180;-122.272;2023-07-20T05:45:00;26.0;22.4;
49686;PMS5003;36064;38.180;-122.272;2023-07-20T05:50:00;25.4;22.6;
49686;PMS5003;36064;38.180;-122.272;2023-07-20T05:55:00;22.8;21.0;
49686;PMS5003;36064;38.180;-122.272;2023-07-20T06:00:00;24.4;21.0;
49686;PMS5003;36064;38.180;-122.272;2023-07-20T06:05:00;26.8;22.4;
49686;PMS5003;36064;38.180;-122.272;2023-07-20T06:10:00;26.2;23.2;
49686;PMS5003;36064;38.180;-122.272;2023-07-20T06:15:02;23.2;21.0;
49686;PMS5003;36064;38.180;-122.272;2023-07-20T06:20:00;24.8;21.6;
49686;PMS5003;36064;38.180;-122.272;2023-07-20T06:25:00;23.6;19.4;
49686;PMS5003;36064;38.180;-122.272;2023-07-20T06:30:00;23.6;18.8;
49686;PMS5003;36064;38.180;-122.272;2023-07-20T06:35:00;23.8;20.4;
49686;PMS5003;36064;38.180;-122.272;2023-07-20T06:40:01;22.8;20.4;
49686;PMS5003;36064;38.180;-122.272;2023-07-20T06:45:01;20.2;17.6;
49686;PMS5003;36064;38.180;-122.272;2023-07-20T06:50:00;24.8;19.8;
49686;PMS5003;36064;38.180;-122.272;2023-07-20T06:55:00;22.0;20.0;
49686;PMS5003;36064;38.180;-122.272;2023-07-20T07:00:00;26.4;22.6;
49686;PMS5003;36064;38.180;-122.272;2023-07-20T07:05:00;30.8;25.4;
49686;PMS5003;36064;38.180;-122.272;2023-07-20T07:10:00;26.2;22.2;
49686;PMS5003;36064;38.180;-122.272;2023-07-20T07:15:01;22.2;21.8;
49686;PMS5003;36064;38.180;-122.272;2023-07-20T07:20:00;23.2;21.2;
49686;PMS5003;36064;38.180;-122.272;2023-07-20T07:25:00;25.6;24.0;
49686;PMS5003;36064;38.180;-122.272;2023-07-20T07:30:00;20.8;19.2;
49686;PMS5003;36064;38.180;-122.272;2023-07-20T07:35:00;26.0;22.6;
49686;PMS5003;36064;38.180;-122.272;2023-07-20T07:40:00;24.4;23.8;
49686;PMS5003;36064;38.180;-122.272;2023-07-20T07:45:00;25.0;22.6;
49686;PMS5003;36064;38.180;-122.272;2023-07-20T07:50:00;21.0;19.4;
49686;PMS5003;36064;38.180;-122.272;2023-07-20T07:55:00;26.0;21.6;
49686;PMS5003;36064;38.180;-122.272;2023-07-20T08:00:00;25.0;21.6;
49686;PMS5003;36064;38.180;-122.272;2023-07-20T08:05:00;24.8;23.4;
49686;PMS5003;36064;38.180;-122.272;2023-07-20T08:10:00;24.8;22.2;
49686;PMS5003;36064;38.180;-122.272;2023-07-20T08:15:00;26.4;25.6;
49686;PMS5003;36064;38.180;-122.272;2023-07-20T08:20:00;23.0;19.2;
49686;PMS5003;36064;38.180;-122.272;2023-07-20T08:25:00;27.0;22.6;
49686;PMS5003;36064;38.180;-122.272;2023-07-20T08:30:00;25.0;22.0;
49686;PMS5003;36064;38.180;-122.272;2023-07-20T08:35:00;23.2;22.4;
49686;PMS5003;36064;38.180;-122.272;2023-07-20T08:40:00;24.6;22.8;
49686;PMS5003;36064;38.180;-122.272;2023-07-20T08:45:01;21.6;19.0;
49686;PMS5003;36064;38.180;-122.272;2023-07-20T08:50:00;23.4;21.4;
49686;PMS5003;36064;38.180;-122.272;2023-07-20T08:55:00;24.0;20.2;
49686;PMS5003;36064;38.180;-122.272;2023-07-20T09:00:01;24.2;22.0;
49686;PMS5003;36064;38.180;-122.272;2023-07-20T09:05:00;20.4;19.6;
49686;PMS5003;36064;38.180;-122.272;2023-07-20T09:10:00;23.0;18.8;
49686;PMS5003;36064;38.180;-122.272;2023-07-20T09:15:00;28.6;27.0;
49686;PMS5003;36064;38.180;-122.272;2023-07-20T09:20:01;25.0;24.2;
49686;PMS5003;36064;38.180;-122.272;2023-07-20T09:25:00;25.8;22.4;
49686;PMS5003;36064;38.180;-122.272;2023-07-20T09:30:00;26.8;22.4;
49686;PMS5003;36064;38.180;-122.272;2023-07-20T09:35:00;27.4;24.2;
49686;PMS5003;36064;38.180;-122.272;2023-07-20T09:40:00;23.4;21.2;
49686;PMS5003;36064;38.180;-122.272;2023-07-20T09:45:00;21.8;19.4;
49686;PMS5003;36064;38.180;-122.272;2023-07-20T09:50:00;26.0;21.8;
49686;PMS5003;36064;38.180;-122.272;2023-07-20T09:55:00;18.6;17.8;
49686;PMS5003;36064;38.180;-122.272;2023-07-20T10:00:01;20.4;18.8;
49686;PMS5003;36064;38.180;-122.272;2023-07-20T10:05:02;26.6;24.2;
49686;PMS5003;36064;38.180;-122.272;2023-07-20T10:10:01;24.6;22.0;
49686;PMS5003;36064;38.180;-122.272;2023-07-20T10:15:07;27.2;24.6;
49686;PMS5003;36064;38.180;-122.272;2023-07-20T10:20:00;23.0;19.8;
49686;PMS5003;36064;38.180;-122.272;2023-07-20T10:25:00;24.8;22.6;
49686;PMS5003;36064;38.180;-122.272;2023-07-20T10:30:00;23.4;22.2;
49686;PMS5003;36064;38.180;-122.272;2023-07-20T10:35:00;20.2;18.2;
49686;PMS5003;36064;38.180;-122.272;2023-07-20T10:40:08;26.4;22.4;
49686;PMS5003;36064;38.180;-122.272;2023-07-20T10:45:01;20.2;18.0;
49686;PMS5003;36064;38.180;-122.272;2023-07-20T10:50:01;19.8;16.0;
49686;PMS5003;36064;38.180;-122.272;2023-07-20T10:55:10;19.0;18.0;
49686;PMS5003;36064;38.180;-122.272;2023-07-20T11:00:10;17.4;16.4;
49686;PMS5003;36064;38.180;-122.272;2023-07-20T11:05:00;20.4;18.6;
49686;PMS5003;36064;38.180;-122.272;2023-07-20T11:10:09;20.8;17.4;
49686;PMS5003;36064;38.180;-122.272;2023-07-20T11:15:00;24.6;22.0;
49686;PMS5003;36064;38.180;-122.272;2023-07-20T11:20:00;20.4;19.2;
49686;PMS5003;36064;38.180;-122.272;2023-07-20T11:25:00;17.8;15.8;
49686;PMS5003;36064;38.180;-122.272;2023-07-20T11:30:00;18.8;17.6;
49686;PMS5003;36064;38.180;-122.272;2023-07-20T11:35:00;18.4;15.2;
49686;PMS5003;36064;38.180;-122.272;2023-07-20T11:40:00;17.6;14.6;
49686;PMS5003;36064;38.180;-122.272;2023-07-20T11:45:02;19.6;16.4;
49686;PMS5003;36064;38.180;-122.272;2023-07-20T11:50:05;18.4;16.8;
49686;PMS5003;36064;38.180;-122.272;2023-07-20T11:55:00;18.4;15.6;
49686;PMS5003;36064;38.180;-122.272;2023-07-20T12:00:02;24.8;19.0;
49686;PMS5003;36064;38.180;-122.272;2023-07-20T12:05:01;20.0;17.6;
49686;PMS5003;36064;38.180;-122.272;2023-07-20T12:10:04;18.2;14.4;
49686;PMS5003;36064;38.180;-122.272;2023-07-20T12:20:00;20.4;18.0;
49686;PMS5003;36064;38.180;-122.272;2023-07-20T12:25:00;20.6;18.8;
49686;PMS5003;36064;38.180;-122.272;2023-07-20T12:30:00;20.8;19.6;
49686;PMS5003;36064;38.180;-122.272;2023-07-20T12:35:00;17.4;16.6;
49686;PMS5003;36064;38.180;-122.272;2023-07-20T12:40:00;20.2;19.2;
49686;PMS5003;36064;38.180;-122.272;2023-07-20T12:45:00;19.2;17.4;
49686;PMS5003;36064;38.180;-122.272;2023-07-20T12:50:00;20.0;16.6;
49686;PMS5003;36064;38.180;-122.272;2023-07-20T12:55:00;18.0;15.6;
49686;PMS5003;36064;38.180;-122.272;2023-07-20T13:00:00;22.8;17.8;
49686;PMS5003;36064;38.180;-122.272;2023-07-20T13:05:00;22.0;18.8;
49686;PMS5003;36064;38.180;-122.272;2023-07-20T13:10:00;18.4;16.6;
49686;PMS5003;36064;38.180;-122.272;2023-07-20T13:15:01;22.8;19.6;
49686;PMS5003;36064;38.180;-122.272;2023-07-20T13:20:00;20.2;18.2;
49686;PMS5003;36064;38.180;-122.272;2023-07-20T13:25:00;18.4;17.2;
49686;PMS5003;36064;38.180;-122.272;2023-07-20T13:30:00;16.8;15.8;
49686;PMS5003;36064;38.180;-122.272;2023-07-20T13:35:00;18.8;16.0;
49686;PMS5003;36064;38.180;-122.272;2023-07-20T13:40:00;14.2;13.8;
49686;PMS5003;36064;38.180;-122.272;2023-07-20T13:45:00;18.2;15.8;
49686;PMS5003;36064;38.180;-122.272;2023-07-20T13:50:00;16.4;13.8;
49686;PMS5003;36064;38.180;-122.272;2023-07-20T13:55:00;17.8;17.4;
49686;PMS5003;36064;38.180;-122.272;2023-07-20T14:00:00;19.8;18.2;
49686;PMS5003;36064;38.180;-122.272;2023-07-20T14:05:00;18.39;15.4;
49686;PMS5003;36064;38.180;-122.272;2023-07-20T14:10:00;16.0;15.4;
49686;PMS5003;36064;38.180;-122.272;2023-07-20T14:15:00;19.8;17.2;
49686;PMS5003;36064;38.180;-122.272;2023-07-20T14:20:00;17.8;15.4;
49686;PMS5003;36064;38.180;-122.272;2023-07-20T14:25:00;18.2;15.8;
49686;PMS5003;36064;38.180;-122.272;2023-07-20T14:30:00;16.8;14.6;
49686;PMS5003;36064;38.180;-122.272;2023-07-20T14:35:00;17.0;16.6;
49686;PMS5003;36064;38.180;-122.272;2023-07-20T14:40:00;18.8;16.6;
49686;PMS5003;36064;38.180;-122.272;2023-07-20T14:45:01;19.0;17.6;
49686;PMS5003;36064;38.180;-122.272;2023-07-20T14:50:00;18.0;17.0;
49686;PMS5003;36064;38.180;-122.272;2023-07-20T14:55:00;15.2;14.0;
49686;PMS5003;36064;38.180;-122.272;2023-07-20T15:00:00;17.2;16.0;
49686;PMS5003;36064;38.180;-122.272;2023-07-20T15:05:00;16.6;14.6;
49686;PMS5003;36064;38.180;-122.272;2023-07-20T15:10:00;18.8;16.2;
49686;PMS5003;36064;38.180;-122.272;2023-07-20T15:15:03;14.8;12.6;
49686;PMS5003;36064;38.180;-122.272;2023-07-20T15:20:00;18.4;15.6;
49686;PMS5003;36064;38.180;-122.272;2023-07-20T15:25:01;16.8;14.4;
49686;PMS5003;36064;38.180;-122.272;2023-07-20T15:30:00;20.8;19.4;
49686;PMS5003;36064;38.180;-122.272;2023-07-20T15:35:00;18.0;16.4;
49686;PMS5003;36064;38.180;-122.272;2023-07-20T15:40:00;16.8;13.8;
49686;PMS5003;36064;38.180;-122.272;2023-07-20T15:45:00;15.8;14.2;
49686;PMS5003;36064;38.180;-122.272;2023-07-20T15:50:00;17.6;16.4;
49686;PMS5003;36064;38.180;-122.272;2023-07-20T15:55:00;16.2;14.4;
49686;PMS5003;36064;38.180;-122.272;2023-07-20T16:00:00;18.2;15.0;
49686;PMS5003;36064;38.180;-122.272;2023-07-20T16:05:00;14.0;12.0;
49686;PMS5003;36064;38.180;-122.272;2023-07-20T16:10:00;18.0;15.4;
49686;PMS5003;36064;38.180;-122.272;2023-07-20T16:15:00;12.8;11.6;
49686;PMS5003;36064;38.180;-122.272;2023-07-20T16:20:00;15.8;13.0;
49686;PMS5003;36064;38.180;-122.272;2023-07-20T16:25:00;14.6;13.4;
49686;PMS5003;36064;38.180;-122.272;2023-07-20T16:30:00;18.2;16.6;
49686;PMS5003;36064;38.180;-122.272;2023-07-20T16:35:00;14.4;13.6;
49686;PMS5003;36064;38.180;-122.272;2023-07-20T16:40:00;18.4;17.2;
49686;PMS5003;36064;38.180;-122.272;2023-07-20T16:45:00;16.6;14.2;
49686;PMS5003;36064;38.180;-122.272;2023-07-20T16:50:00;17.6;16.6;
49686;PMS5003;36064;38.180;-122.272;2023-07-20T16:55:00;16.2;14.4;
49686;PMS5003;36064;38.180;-122.272;2023-07-20T17:00:01;17.4;14.6;
49686;PMS5003;36064;38.180;-122.272;2023-07-20T17:05:00;14.2;12.8;
49686;PMS5003;36064;38.180;-122.272;2023-07-20T17:10:00;13.4;12.4;
49686;PMS5003;36064;38.180;-122.272;2023-07-20T17:15:00;16.0;15.4;
49686;PMS5003;36064;38.180;-122.272;2023-07-20T17:20:00;12.4;12.4;
49686;PMS5003;36064;38.180;-122.272;2023-07-20T17:25:00;15.4;14.0;
49686;PMS5003;36064;38.180;-122.272;2023-07-20T17:30:00;16.2;14.0;
49686;PMS5003;36064;38.180;-122.272;2023-07-20T17:35:00;17.0;15.8;
49686;PMS5003;36064;38.180;-122.272;2023-07-20T17:40:06;16.6;16.0;
49686;PMS5003;36064;38.180;-122.272;2023-07-20T17:45:00;19.8;18.0;
49686;PMS5003;36064;38.180;-122.272;2023-07-20T17:50:00;17.2;15.6;
49686;PMS5003;36064;38.180;-122.272;2023-07-20T17:55:00;16.2;14.6;
49686;PMS5003;36064;38.180;-122.272;2023-07-20T18:00:00;16.0;15.6;
49686;PMS5003;36064;38.180;-122.272;2023-07-20T18:05:00;19.2;14.8;
49686;PMS5003;36064;38.180;-122.272;2023-07-20T18:10:01;19.4;17.2;
49686;PMS5003;36064;38.180;-122.272;2023-07-20T18:15:00;19.8;18.6;
49686;PMS5003;36064;38.180;-122.272;2023-07-20T18:20:00;19.4;18.6;
49686;PMS5003;36064;38.180;-122.272;2023-07-20T18:25:00;16.6;15.6;
49686;PMS5003;36064;38.180;-122.272;2023-07-20T18:30:00;17.4;15.6;
49686;PMS5003;36064;38.180;-122.272;2023-07-20T18:35:00;17.4;16.6;
49686;PMS5003;36064;38.180;-122.272;2023-07-20T18:40:01;16.8;15.4;
49686;PMS5003;36064;38.180;-122.272;2023-07-20T18:45:00;19.4;17.6;
49686;PMS5003;36064;38.180;-122.272;2023-07-20T18:50:00;16.2;15.6;
49686;PMS5003;36064;38.180;-122.272;2023-07-20T18:55:00;15.2;14.2;
49686;PMS5003;36064;38.180;-122.272;2023-07-20T19:00:00;16.0;15.8;
49686;PMS5003;36064;38.180;-122.272;2023-07-20T19:05:00;15.6;15.2;
49686;PMS5003;36064;38.180;-122.272;2023-07-20T19:10:01;14.6;13.6;
49686;PMS5003;36064;38.180;-122.272;2023-07-20T19:15:00;21.8;19.2;
49686;PMS5003;36064;38.180;-122.272;2023-07-20T19:20:00;19.4;16.2;
49686;PMS5003;36064;38.180;-122.272;2023-07-20T19:25:00;17.0;15.6;
49686;PMS5003;36064;38.180;-122.272;2023-07-20T19:30:00;19.8;18.6;
49686;PMS5003;36064;38.180;-122.272;2023-07-20T19:35:00;22.8;19.8;
49686;PMS5003;36064;38.180;-122.272;2023-07-20T19:40:00;20.8;17.4;
49686;PMS5003;36064;38.180;-122.272;2023-07-20T19:45:00;18.4;18.0;
49686;PMS5003;36064;38.180;-122.272;2023-07-20T19:50:00;22.0;20.8;
49686;PMS5003;36064;38.180;-122.272;2023-07-20T19:55:00;19.0;17.8;
49686;PMS5003;36064;38.180;-122.272;2023-07-20T20:00:00;22.6;20.6;
49686;PMS5003;36064;38.180;-122.272;2023-07-20T20:05:00;21.4;19.6;
49686;PMS5003;36064;38.180;-122.272;2023-07-20T20:10:00;21.2;20.2;
49686;PMS5003;36064;38.180;-122.272;2023-07-20T20:15:00;20.2;18.0;
49686;PMS5003;36064;38.180;-122.272;2023-07-20T20:20:00;19.0;18.6;
49686;PMS5003;36064;38.180;-122.272;2023-07-20T20:25:00;19.2;17.4;
49686;PMS5003;36064;38.180;-122.272;2023-07-20T20:30:00;22.6;21.4;
49686;PMS5003;36064;38.180;-122.272;2023-07-20T20:35:00;21.4;21.0;
49686;PMS5003;36064;38.180;-122.272;2023-07-20T20:40:00;24.4;22.0;
49686;PMS5003;36064;38.180;-122.272;2023-07-20T20:45:00;20.8;19.0;
49686;PMS5003;36064;38.180;-122.272;2023-07-20T20:50:00;22.0;21.2;
49686;PMS5003;36064;38.180;-122.272;2023-07-20T20:55:00;18.2;19.4;
49686;PMS5003;36064;38.180;-122.272;2023-07-20T21:00:00;17.6;16.8;
49686;PMS5003;36064;38.180;-122.272;2023-07-20T21:05:00;18.0;16.6;
49686;PMS5003;36064;38.180;-122.272;2023-07-20T21:10:00;17.0;15.8;
49686;PMS5003;36064;38.180;-122.272;2023-07-20T21:15:01;20.0;19.6;
49686;PMS5003;36064;38.180;-122.272;2023-07-20T21:20:00;21.0;19.2;
49686;PMS5003;36064;38.180;-122.272;2023-07-20T21:25:00;17.0;16.0;
49686;PMS5003;36064;38.180;-122.272;2023-07-20T21:30:00;15.4;15.2;
49686;PMS5003;36064;38.180;-122.272;2023-07-20T21:35:00;17.4;16.8;
49686;PMS5003;36064;38.180;-122.272;2023-07-20T21:40:00;20.8;20.2;
49686;PMS5003;36064;38.180;-122.272;2023-07-20T21:45:00;16.8;16.0;
49686;PMS5003;36064;38.180;-122.272;2023-07-20T21:50:00;19.0;18.0;
49686;PMS5003;36064;38.180;-122.272;2023-07-20T21:55:00;18.2;17.6;
49686;PMS5003;36064;38.180;-122.272;2023-07-20T22:00:01;21.2;20.4;
49686;PMS5003;36064;38.180;-122.272;2023-07-20T22:05:00;25.8;24.0;
49686;PMS5003;36064;38.180;-122.272;2023-07-20T22:10:00;19.8;21.0;
49686;PMS5003;36064;38.180;-122.272;2023-07-20T22:15:00;22.8;21.2;
49686;PMS5003;36064;38.180;-122.272;2023-07-20T22:20:00;22.0;22.0;
49686;PMS5003;36064;38.180;-122.272;2023-07-20T22:25:00;20.4;18.2;
49686;PMS5003;36064;38.180;-122.272;2023-07-20T22:30:00;22.4;22.8;
49686;PMS5003;36064;38.180;-122.272;2023-07-20T22:35:00;20.2;20.8;
49686;PMS5003;36064;38.180;-122.272;2023-07-20T22:40:00;21.8;19.4;
49686;PMS5003;36064;38.180;-122.272;2023-07-20T22:45:01;19.0;18.4;
49686;PMS5003;36064;38.180;-122.272;2023-07-20T22:50:00;17.6;17.6;
49686;PMS5003;36064;38.180;-122.272;2023-07-20T22:55:00;22.6;21.8;
49686;PMS5003;36064;38.180;-122.272;2023-07-20T23:00:00;22.0;19.8;
49686;PMS5003;36064;38.180;-122.272;2023-07-20T23:05:00;19.8;19.8;
49686;PMS5003;36064;38.180;-122.272;2023-07-20T23:10:00;17.0;16.6;
49686;PMS5003;36064;38.180;-122.272;2023-07-20T23:15:00;17.0;16.6;
49686;PMS5003;36064;38.180;-122.272;2023-07-20T23:20:01;21.2;20.8;
49686;PMS5003;36064;38.180;-122.272;2023-07-20T23:25:00;15.8;15.8;
49686;PMS5003;36064;38.180;-122.272;2023-07-20T23:30:00;19.2;18.4;
49686;PMS5003;36064;38.180;-122.272;2023-07-20T23:35:00;15.2;14.6;
49686;PMS5003;36064;38.180;-122.272;2023-07-20T23:40:00;14.6;14.2;
49686;PMS5003;36064;38.180;-122.272;2023-07-20T23:45:00;16.0;15.2;
49686;PMS5003;36064;38.180;-122.272;2023-07-20T23:50:00;15.2;15.2;
49686;PMS5003;36064;38.180;-122.272;2023-07-20T23:55:01;15.6;15.4;
